.
WxDataArchive / Data Records for 2008-06-12
2008-06-11 June 2008 2008-06-13

Data Records for Thursday, 12 June 2008

Time	Temp	Chill	HIndex	Humid	Dewpt	 Wind 	HiWind	WindDir	Rain 	Barom 
-----	----	-----	------	-----	-----	------	------	-------	-----	----- 
00:00	73.0	73.0	73.0	66	61.0	1	4	158	0.00	29.998 
00:05	72.8	72.8	72.8	66	60.8	1	4	90	0.00	30.001 
00:10	72.8	72.8	72.8	66	60.8	1	4	112	0.00	30.001 
00:15	72.8	72.8	72.8	66	60.8	1	3	135	0.00	30.000 
00:20	72.7	72.7	72.7	66	60.7	1	2	135	0.00	30.003 
00:25	72.5	72.5	72.5	67	60.9	0	2	135	0.00	30.004 
00:30	72.5	72.5	72.5	67	60.9	0	1	135	0.00	30.004 
00:35	72.3	72.3	72.3	67	60.7	0	1	135	0.00	30.005 
00:40	72.1	72.1	72.1	67	60.5	0	2	135	0.00	30.013 
00:45	72.0	72.0	72.0	67	60.4	0	1	135	0.00	30.008 
00:50	72.0	72.0	72.0	67	60.4	0	2	112	0.00	30.005 
00:55	71.8	71.8	71.8	67	60.2	0	1	112	0.00	30.006 
01:00	71.8	71.8	71.8	67	60.2	1	2	112	0.00	30.005 
01:05	71.6	71.6	71.6	68	60.5	0	3	112	0.00	30.007 
01:10	71.5	71.5	71.5	68	60.4	0	1	112	0.00	30.008 
01:15	71.3	71.3	71.3	69	60.6	0	1	112	0.00	30.015 
01:20	70.9	70.9	70.9	69	60.2	0	0	---	0.00	30.017 
01:25	70.6	70.6	70.6	70	60.3	0	0	---	0.00	30.019 
01:30	70.3	70.3	70.3	71	60.4	0	1	112	0.00	30.019 
01:35	69.9	69.9	69.9	72	60.4	0	1	112	0.00	30.021 
01:40	69.8	69.8	69.8	72	60.4	0	0	---	0.00	30.023 
01:45	69.8	69.8	69.8	72	60.4	0	1	112	0.00	30.022 
01:50	69.6	69.6	69.6	73	60.6	0	0	---	0.00	30.022 
01:55	69.4	69.4	69.4	73	60.4	0	0	---	0.00	30.024 
02:00	69.3	69.3	69.3	73	60.3	0	1	112	0.00	30.023 
02:05	69.3	69.3	69.3	73	60.3	0	1	112	0.00	30.023 
02:10	69.3	69.3	69.3	73	60.3	0	1	112	0.00	30.023 
02:15	69.1	69.1	69.1	74	60.5	0	0	---	0.00	30.022 
02:20	69.1	69.1	69.1	74	60.5	0	0	---	0.00	30.019 
02:25	68.9	68.9	68.9	74	60.3	0	0	---	0.00	30.022 
02:30	68.9	68.9	68.9	75	60.6	0	0	---	0.00	30.023 
02:35	68.8	68.8	68.8	75	60.5	0	0	---	0.00	30.023 
02:40	68.6	68.6	68.6	76	60.7	0	0	---	0.00	30.024 
02:45	68.6	68.6	68.6	77	61.1	0	0	---	0.00	30.023 
02:50	68.6	68.6	68.6	77	61.1	0	0	---	0.00	30.023 
02:55	68.4	68.4	68.4	77	60.9	0	0	---	0.00	30.022 
03:00	68.4	68.4	68.4	78	61.3	0	0	---	0.00	30.021 
03:05	68.4	68.4	68.4	77	60.9	0	1	112	0.00	30.020 
03:10	68.6	68.6	68.6	77	61.1	0	0	---	0.00	30.021 
03:15	68.6	68.6	68.6	77	61.1	0	0	---	0.00	30.020 
03:20	68.6	68.6	68.6	77	61.1	0	0	---	0.00	30.019 
03:25	68.6	68.6	68.6	77	61.1	0	0	---	0.00	30.020 
03:30	68.4	68.4	68.4	77	60.9	0	0	---	0.00	30.019 
03:35	68.4	68.4	68.4	77	60.9	0	0	---	0.00	30.022 
03:40	68.3	68.3	68.3	78	61.2	0	0	---	0.00	30.022 
03:45	68.3	68.3	68.3	78	61.2	0	0	---	0.00	30.021 
03:50	68.1	68.1	68.1	79	61.3	0	0	---	0.00	30.022 
03:55	68.1	68.1	68.1	79	61.3	0	0	---	0.00	30.022 
04:00	67.9	67.9	67.9	79	61.1	0	0	---	0.00	30.023 
04:05	67.9	67.9	67.9	80	61.5	0	1	112	0.00	30.024 
04:10	67.9	67.9	67.9	79	61.1	0	0	---	0.00	30.026 
04:15	67.8	67.8	67.8	80	61.4	0	0	---	0.00	30.028 
04:20	67.8	67.8	67.8	80	61.4	0	0	---	0.00	30.029 
04:25	67.6	67.6	67.6	81	61.6	0	0	---	0.00	30.028 
04:30	67.8	67.8	67.8	80	61.4	0	1	112	0.00	30.025 
04:35	67.8	67.8	67.8	80	61.4	0	0	---	0.00	30.025 
04:40	67.8	67.8	67.8	79	61.0	0	1	112	0.00	30.023 
04:45	67.9	67.9	67.9	79	61.1	0	1	112	0.00	30.023 
04:50	68.1	68.1	68.1	79	61.3	0	1	112	0.00	30.023 
04:55	67.9	67.9	67.9	80	61.5	0	2	112	0.00	30.023 
05:00	67.8	67.8	67.8	81	61.7	0	2	112	0.00	30.021 
05:05	67.6	67.6	67.6	81	61.6	0	0	---	0.00	30.024 
05:10	67.3	67.3	67.3	82	61.6	0	0	---	0.00	30.024 
05:15	66.9	66.9	66.9	82	61.2	0	0	---	0.00	30.026 
05:20	66.6	66.6	66.6	83	61.3	0	0	---	0.00	30.026 
05:25	66.3	66.3	66.3	84	61.3	0	0	---	0.00	30.029 
05:30	66.1	66.1	66.1	84	61.1	0	0	---	0.00	30.029 
05:35	66.0	66.0	66.0	85	61.4	0	0	---	0.00	30.030 
05:40	65.8	65.8	65.8	85	61.2	0	1	112	0.00	30.029 
05:45	65.8	65.8	65.8	85	61.2	0	1	112	0.00	30.028 
05:50	65.8	65.8	65.8	86	61.5	0	1	112	0.00	30.026 
05:55	66.0	66.0	66.0	86	61.7	0	1	112	0.00	30.026 
06:00	66.0	66.0	66.0	86	61.7	0	1	112	0.00	30.027 
06:05	66.0	66.0	66.0	86	61.7	0	0	---	0.00	30.029 
06:10	66.0	66.0	66.0	86	61.7	0	0	---	0.00	30.029 
06:15	66.1	66.1	66.1	86	61.8	0	1	112	0.00	30.029 
06:20	66.1	66.1	66.1	86	61.8	0	0	---	0.00	30.028 
06:25	66.4	66.4	66.4	86	62.1	0	1	112	0.00	30.028 
06:30	66.8	66.8	66.8	85	62.1	0	1	112	0.00	30.023 
06:35	67.3	67.3	67.3	84	62.3	0	1	112	0.00	30.019 
06:40	67.9	67.9	67.9	82	62.2	1	4	112	0.00	30.019 
06:45	68.6	68.6	68.6	81	62.5	1	2	112	0.00	30.013 
06:50	69.1	69.1	69.1	80	62.7	1	2	112	0.00	30.011 
06:55	69.6	69.6	69.6	79	62.8	1	2	112	0.00	30.010 
07:00	69.9	69.9	69.9	79	63.1	0	2	112	0.00	30.012 
07:05	70.1	70.1	70.1	77	62.5	1	4	90	0.00	30.013 
07:10	70.1	70.1	70.1	77	62.5	1	3	90	0.00	30.020 
07:15	70.1	70.1	70.1	77	62.5	1	3	90	0.00	30.025 
07:20	70.4	70.4	70.4	76	62.5	0	2	90	0.00	30.028 
07:25	70.8	70.8	70.8	75	62.5	0	3	90	0.00	30.029 
07:30	71.1	71.1	71.1	75	62.8	1	2	90	0.00	30.034 
07:35	71.5	71.5	71.5	73	62.4	1	3	90	0.00	30.038 
07:40	72.0	72.0	72.0	73	62.9	0	2	90	0.00	30.037 
07:45	72.7	72.7	72.7	70	62.3	1	3	112	0.00	30.036 
07:50	73.0	73.0	73.0	70	62.6	1	4	90	0.00	30.038 
07:55	73.5	73.5	73.5	70	63.1	1	3	90	0.00	30.039 
08:00	74.0	74.0	74.0	68	62.8	1	2	90	0.00	30.038 
08:05	74.2	74.2	74.2	68	62.9	0	3	90	0.00	30.043 
08:10	73.9	73.9	73.9	68	62.7	1	3	90	0.00	30.044 
08:15	74.0	74.0	74.0	69	63.2	0	2	158	0.00	30.043 
08:20	74.0	74.0	74.0	67	62.3	0	2	158	0.00	30.041 
08:25	74.4	74.4	74.4	68	63.1	1	2	90	0.00	30.041 
08:30	74.6	74.6	74.6	66	62.5	0	3	90	0.00	30.042 
08:35	74.9	74.9	74.9	65	62.3	1	3	112	0.00	30.042 
08:40	75.3	75.3	77.3	65	62.7	0	2	112	0.00	30.042 
08:45	75.4	75.4	77.4	65	62.8	1	3	112	0.00	30.042 
08:50	75.6	75.6	77.5	65	63.0	0	1	112	0.00	30.043 
08:55	76.1	76.1	78.0	65	63.5	1	4	112	0.00	30.043 
09:00	76.8	76.8	78.6	60	61.8	1	3	112	0.00	30.041 
09:05	77.6	77.6	79.4	62	63.5	0	2	112	0.00	30.042 
09:10	78.5	78.5	80.3	62	64.4	1	3	112	0.00	30.043 
09:15	79.0	79.0	80.6	59	63.4	1	5	112	0.00	30.045 
09:20	79.4	79.4	80.9	57	62.8	1	3	112	0.00	30.046 
09:25	79.2	79.2	80.7	57	62.6	1	3	112	0.00	30.043 
09:30	78.8	78.8	80.3	58	62.8	1	2	112	0.00	30.039 
09:35	78.6	78.6	80.1	57	62.1	1	3	112	0.00	30.038 
09:40	78.5	78.5	80.1	59	63.0	1	6	90	0.00	30.036 
09:45	78.6	78.6	80.1	57	62.1	0	2	90	0.00	30.036 
09:50	79.0	79.0	80.5	57	62.4	1	4	90	0.00	30.036 
09:55	79.4	79.4	80.8	56	62.3	1	3	90	0.00	30.035 
10:00	79.8	79.8	81.2	56	62.7	1	2	90	0.00	30.036 
10:05	79.6	79.6	81.0	56	62.5	1	4	112	0.00	30.033 
10:10	79.6	79.6	81.2	58	63.5	0	2	112	0.00	30.033 
10:15	79.4	79.4	81.1	60	64.3	1	2	112	0.00	30.032 
10:20	79.8	79.8	81.3	57	63.2	0	1	90	0.00	30.030 
10:25	80.5	80.5	81.8	55	62.8	1	3	90	0.00	30.033 
10:30	81.2	81.2	83.0	58	65.0	0	2	90	0.00	30.032 
10:35	81.6	81.6	82.9	54	63.3	1	4	90	0.00	30.033 
10:40	81.8	81.8	83.5	56	64.5	1	4	112	0.00	30.034 
10:45	82.2	82.2	83.6	54	63.9	1	3	112	0.00	30.036 
10:50	82.6	82.6	84.3	55	64.8	0	3	315	0.00	30.036 
10:55	82.8	82.8	84.4	54	64.4	1	3	270	0.00	30.035 
11:00	83.4	83.4	85.4	55	65.5	0	2	270	0.00	30.036 
11:05	83.2	83.2	85.6	57	66.4	1	3	270	0.00	30.036 
11:10	83.2	83.2	84.9	54	64.8	1	3	270	0.00	30.035 
11:15	83.2	83.2	84.9	54	64.8	0	2	270	0.00	30.033 
11:20	83.2	83.2	85.1	55	65.3	1	2	202	0.00	30.034 
11:25	83.4	83.4	85.0	53	64.4	1	3	158	0.00	30.034 
11:30	83.4	83.4	86.1	58	67.0	0	3	135	0.00	30.032 
11:35	83.4	83.4	85.8	57	66.5	0	2	225	0.00	30.033 
11:40	83.6	83.6	85.7	55	65.7	1	3	135	0.00	30.034 
11:45	83.6	83.6	85.9	56	66.2	1	4	90	0.00	30.033 
11:50	83.4	83.4	85.2	54	65.0	2	4	90	0.00	30.032 
11:55	83.4	83.4	85.2	54	65.0	2	4	90	0.00	30.030 
12:00	83.8	83.8	86.7	58	67.4	0	3	90	0.00	30.027 
12:05	84.0	84.0	86.0	54	65.5	2	6	112	0.00	30.026 
12:10	84.0	84.0	86.7	57	67.1	1	3	112	0.00	30.024 
12:15	83.8	83.8	85.7	54	65.3	2	4	90	0.00	30.023 
12:20	83.8	83.8	86.2	56	66.4	1	3	68	0.00	30.026 
12:25	84.1	84.1	87.2	58	67.7	0	3	68	0.00	30.022 
12:30	84.5	84.5	87.5	57	67.6	0	2	68	0.00	30.022 
12:35	84.7	84.7	87.0	54	66.2	1	3	68	0.00	30.023 
12:40	84.7	84.7	87.0	54	66.2	1	5	112	0.00	30.021 
12:45	84.9	84.9	87.6	55	66.9	1	4	292	0.00	30.022 
12:50	85.3	85.3	88.2	55	67.3	1	3	315	0.00	30.019 
12:55	85.7	85.7	89.5	57	68.7	1	4	90	0.00	30.017 
13:00	85.7	85.7	88.3	53	66.6	1	4	90	0.00	30.016 
13:05	86.1	86.1	89.2	54	67.5	1	4	292	0.00	30.019 
13:10	86.3	86.3	89.6	54	67.7	1	5	90	0.00	30.013 
13:15	86.7	86.7	89.6	52	66.9	1	4	292	0.00	30.010 
13:20	86.7	86.7	89.6	52	66.9	1	3	338	0.00	30.012 
13:25	86.1	86.1	88.9	53	66.9	1	3	338	0.00	30.008 
13:30	85.7	85.7	88.3	53	66.6	1	4	90	0.00	30.007 
13:35	85.5	85.5	87.7	52	65.8	2	4	112	0.00	30.005 
13:40	85.3	85.3	87.7	53	66.2	2	5	112	0.00	30.002 
13:45	85.5	85.5	88.6	55	67.5	1	3	270	0.00	30.000 
13:50	85.7	85.7	88.3	53	66.6	1	2	270	0.00	29.996 
13:55	86.1	86.1	88.9	53	66.9	1	3	270	0.00	29.994 
14:00	86.5	86.5	89.3	52	66.7	1	5	112	0.00	29.991 
14:05	86.7	86.7	89.9	53	67.5	1	3	248	0.00	29.991 
14:10	87.0	87.0	89.7	51	66.6	1	3	270	0.00	29.991 
14:15	87.2	87.2	89.7	50	66.3	1	4	112	0.00	29.988 
14:20	87.2	87.2	89.7	50	66.3	1	3	90	0.00	29.987 
14:25	87.2	87.2	88.8	47	64.5	2	4	90	0.00	29.987 
14:30	87.2	87.2	89.4	49	65.7	2	4	112	0.00	29.985 
14:35	87.0	87.0	89.1	49	65.5	2	4	90	0.00	29.978 
14:40	87.2	87.2	89.7	50	66.3	2	4	90	0.00	29.977 
14:45	87.0	87.0	88.8	48	64.9	2	4	90	0.00	29.975 
14:50	87.2	87.2	89.7	50	66.3	1	3	90	0.00	29.973 
14:55	87.4	87.4	90.1	50	66.4	2	4	112	0.00	29.972 
15:00	87.4	87.4	89.4	48	65.3	2	5	90	0.00	29.970 
15:05	87.6	87.6	90.0	49	66.0	2	5	90	0.00	29.963 
15:10	87.6	87.6	90.0	49	66.0	1	4	90	0.00	29.963 
15:15	87.6	87.6	90.0	49	66.0	1	3	180	0.00	29.959 
15:20	87.4	87.4	89.1	47	64.7	2	11	112	0.00	29.959 
15:25	87.2	87.2	89.1	48	65.1	2	5	90	0.00	29.957 
15:30	87.2	87.2	88.5	46	63.9	2	6	112	0.00	29.957 
15:35	87.0	87.0	88.8	48	64.9	3	7	90	0.00	29.958 
15:40	87.2	87.2	89.1	48	65.1	1	5	112	0.00	29.958 
15:45	87.4	87.4	89.4	48	65.3	2	6	112	0.00	29.957 
15:50	87.6	87.6	88.8	45	63.6	3	7	90	0.00	29.957 
15:55	87.6	87.6	89.7	48	65.4	2	6	112	0.00	29.955 
16:00	87.8	87.8	89.7	47	65.0	2	5	135	0.00	29.956 
16:05	87.8	87.8	90.0	48	65.6	2	6	112	0.00	29.956 
16:10	87.6	87.6	89.7	48	65.4	1	5	112	0.00	29.955 
16:15	87.4	87.4	88.8	46	64.0	2	5	90	0.00	29.957 
16:20	87.2	87.2	88.8	47	64.5	1	5	90	0.00	29.956 
16:25	87.2	87.2	90.1	51	66.8	1	3	270	0.00	29.955 
16:30	87.4	87.4	89.1	47	64.7	1	6	112	0.00	29.952 
16:35	87.4	87.4	90.1	50	66.4	1	5	112	0.00	29.949 
16:40	87.4	87.4	89.4	48	65.3	2	4	112	0.00	29.947 
16:45	87.4	87.4	89.4	48	65.3	1	4	112	0.00	29.945 
16:50	87.4	87.4	89.1	47	64.7	2	6	112	0.00	29.943 
16:55	87.2	87.2	88.8	47	64.5	3	6	112	0.00	29.942 
17:00	87.0	87.0	88.8	48	64.9	2	9	90	0.00	29.940 
17:05	86.7	86.7	88.3	48	64.6	2	5	90	0.00	29.941 
17:10	86.5	86.5	88.6	50	65.6	2	4	112	0.00	29.939 
17:15	86.7	86.7	88.9	50	65.8	1	3	90	0.00	29.936 
17:20	87.0	87.0	89.1	49	65.5	1	3	90	0.00	29.935 
17:25	87.0	87.0	89.4	50	66.1	1	4	135	0.00	29.932 
17:30	87.0	87.0	89.1	49	65.5	2	10	112	0.00	29.930 
17:35	87.2	87.2	89.7	50	66.3	1	5	112	0.00	29.929 
17:40	87.2	87.2	90.8	53	67.9	2	6	90	0.00	29.929 
17:45	87.0	87.0	89.7	51	66.6	3	6	112	0.00	29.929 
17:50	86.7	86.7	89.9	53	67.5	2	6	112	0.00	29.928 
17:55	86.5	86.5	89.9	54	67.8	1	3	90	0.00	29.927 
18:00	86.5	86.5	89.9	54	67.8	2	4	90	0.00	29.927 
18:05	86.3	86.3	89.6	54	67.7	2	7	90	0.00	29.923 
18:10	86.1	86.1	89.6	55	68.0	1	4	135	0.00	29.923 
18:15	85.7	85.7	88.9	55	67.6	2	5	112	0.00	29.923 
18:20	85.5	85.5	88.6	55	67.5	2	6	112	0.00	29.921 
18:25	85.5	85.5	88.9	56	68.0	2	5	112	0.00	29.921 
18:30	85.3	85.3	88.2	55	67.3	2	5	112	0.00	29.920 
18:35	85.1	85.1	88.2	56	67.6	2	6	112	0.00	29.920 
18:40	84.9	84.9	88.2	57	67.9	1	4	112	0.00	29.919 
18:45	84.9	84.9	88.2	57	67.9	2	6	112	0.00	29.919 
18:50	84.9	84.9	88.2	57	67.9	2	5	90	0.00	29.918 
18:55	84.7	84.7	87.9	57	67.7	2	4	112	0.00	29.916 
19:00	84.7	84.7	88.1	58	68.3	1	4	112	0.00	29.913 
19:05	84.5	84.5	87.3	56	67.0	1	3	90	0.00	29.909 
19:10	84.5	84.5	87.0	55	66.5	1	3	135	0.00	29.909 
19:15	84.5	84.5	86.7	54	66.0	1	3	112	0.00	29.909 
19:20	84.5	84.5	87.0	55	66.5	1	3	112	0.00	29.909 
19:25	84.5	84.5	86.7	54	66.0	2	6	90	0.00	29.909 
19:30	84.3	84.3	86.5	54	65.8	1	3	112	0.00	29.906 
19:35	84.1	84.1	86.2	54	65.6	1	4	112	0.00	29.906 
19:40	84.1	84.1	86.2	54	65.6	1	5	112	0.00	29.906 
19:45	84.0	84.0	86.0	54	65.5	2	7	135	0.00	29.908 
19:50	83.8	83.8	85.7	54	65.3	2	4	112	0.00	29.908 
19:55	83.6	83.6	85.7	55	65.7	2	4	112	0.00	29.908 
20:00	83.4	83.4	85.6	56	66.0	1	3	68	0.00	29.910 
20:05	83.2	83.2	85.6	57	66.4	2	7	112	0.00	29.908 
20:10	82.8	82.8	85.0	57	66.0	1	3	112	0.00	29.908 
20:15	82.6	82.6	84.9	58	66.3	1	4	112	0.00	29.908 
20:20	82.4	82.4	84.8	59	66.6	1	5	135	0.00	29.912 
20:25	82.0	82.0	84.2	59	66.2	1	3	90	0.00	29.918 
20:30	81.8	81.8	84.1	60	66.5	1	4	90	0.00	29.917 
20:35	81.6	81.6	83.9	60	66.3	1	3	112	0.00	29.919 
20:40	81.4	81.4	83.8	61	66.6	1	4	112	0.00	29.918 
20:45	81.2	81.2	83.6	62	66.9	1	4	112	0.00	29.922 
20:50	80.9	80.9	83.4	63	67.1	1	2	135	0.00	29.920 
20:55	80.7	80.7	83.1	63	66.9	1	3	112	0.00	29.921 
21:00	80.5	80.5	82.9	64	67.2	1	3	135	0.00	29.923 
21:05	80.3	80.3	82.8	65	67.4	1	5	135	0.00	29.922 
21:10	80.1	80.1	82.5	65	67.2	0	2	112	0.00	29.923 
21:15	79.9	79.9	82.3	66	67.5	1	2	112	0.00	29.925 
21:20	79.8	79.8	82.3	67	67.8	0	2	112	0.00	29.930 
21:25	79.6	79.6	82.0	67	67.7	0	3	112	0.00	29.932 
21:30	79.4	79.4	81.8	68	67.9	0	2	112	0.00	29.934 
21:35	79.2	79.2	81.5	68	67.7	0	2	135	0.00	29.934 
21:40	79.2	79.2	81.6	69	68.1	0	2	135	0.00	29.935 
21:45	79.0	79.0	81.4	70	68.4	0	2	135	0.00	29.936 
21:50	78.8	78.8	81.1	70	68.2	1	3	135	0.00	29.936 
21:55	78.8	78.8	81.1	70	68.2	1	3	135	0.00	29.938 
22:00	78.6	78.6	80.9	71	68.4	0	1	135	0.00	29.940 
22:05	78.6	78.6	80.9	71	68.4	1	2	135	0.00	29.936 
22:10	78.5	78.5	80.8	72	68.7	1	2	135	0.00	29.935 
22:15	78.5	78.5	80.8	72	68.7	0	2	135	0.00	29.931 
22:20	78.3	78.3	80.6	73	68.9	0	3	135	0.00	29.933 
22:25	78.1	78.1	80.3	73	68.7	0	3	225	0.00	29.935 
22:30	78.1	78.1	80.3	74	69.1	0	2	112	0.00	29.934 
22:35	77.9	77.9	80.0	74	68.9	0	2	112	0.00	29.933 
22:40	77.7	77.7	79.7	75	69.1	0	2	112	0.00	29.932 
22:45	77.6	77.6	79.6	75	69.0	0	1	112	0.00	29.933 
22:50	77.6	77.6	79.6	76	69.4	1	2	112	0.00	29.928 
22:55	77.4	77.4	79.3	76	69.2	1	2	112	0.00	29.924 
23:00	77.4	77.4	79.3	77	69.6	1	2	112	0.00	29.921 
23:05	77.4	77.4	79.3	77	69.6	1	4	90	0.00	29.920 
23:10	77.2	77.2	78.9	78	69.8	0	2	112	0.00	29.913 
23:15	76.8	76.8	78.3	79	69.8	1	3	112	0.00	29.910 
23:20	76.7	76.7	78.1	79	69.7	1	4	112	0.00	29.912 
23:25	76.7	76.7	78.1	80	70.0	1	3	135	0.00	29.913 
23:30	76.7	76.7	78.1	80	70.0	1	5	112	0.00	29.913 
23:35	76.7	76.7	78.1	79	69.7	1	3	112	0.00	29.918 
23:40	76.7	76.7	78.1	79	69.7	1	3	112	0.00	29.916 
23:45	76.7	76.7	78.1	79	69.7	1	3	112	0.00	29.918 
23:50	76.7	76.7	78.1	79	69.7	0	3	112	0.00	29.916 
23:55	76.7	76.7	78.2	78	69.3	1	3	112	0.00	29.917 

CoCoRaHS
IN-AL-39
A2 Web Hosting
Creative Commons License
GoDaddy
Look for:

loaded 2017-10-19 20:16:39 • last modified 2010-11-18 10:43:29
Privacy PolicyDisclaimer
• wx.awcolley.com is powered by PmWiki v.2002016 •
• all content (unless otherwise noted) © 2017 A W Colley